Time;durP1;ratioP1;P1;durP2;ratioP2;P2;SDS_P1;SDS_P2;PMS_P1;PMS_P2;Temp;Humidity;BMP_temperature;BMP_pressure;BME280_temperature;BME280_humidity;BME280_pressure;Samples;Min_cycle;Max_cycle;Signal;HPM_P1;HPM_P2
2023/02/13 00:01:32;;;;;;;14.50;8.70;;;;;;;0.69;88.58;98565.30;109017;1268;30350;-86
2023/02/13 00:04:05;;;;;;;16.20;8.90;;;;;;;0.68;88.60;98566.21;108985;1270;136809;-86
2023/02/13 00:06:38;;;;;;;14.30;8.20;;;;;;;0.71;88.97;98567.23;109124;1269;24283;-86
2023/02/13 00:09:10;;;;;;;14.00;7.60;;;;;;;0.69;88.67;98566.15;109123;1271;23234;-86
2023/02/13 00:11:41;;;;;;;14.00;7.70;;;;;;;0.69;88.69;98570.55;109042;1266;22517;-86
2023/02/13 00:14:12;;;;;;;14.60;8.50;;;;;;;0.71;88.79;98574.54;109065;1273;22536;-86
2023/02/13 00:16:43;;;;;;;17.80;9.40;;;;;;;0.73;88.98;98574.77;109111;1270;24235;-86
2023/02/13 00:19:14;;;;;;;16.80;9.20;;;;;;;0.76;88.81;98574.10;109084;1267;22590;-86
2023/02/13 00:21:45;;;;;;;16.00;8.80;;;;;;;0.79;88.93;98568.17;109131;1273;25264;-86
2023/02/13 00:24:16;;;;;;;14.60;8.40;;;;;;;0.83;88.99;98565.77;109138;1273;25467;-86
2023/02/13 00:26:47;;;;;;;15.60;8.90;;;;;;;0.87;89.07;98567.16;109062;1266;24196;-86
2023/02/13 00:29:18;;;;;;;15.60;7.80;;;;;;;0.92;89.15;98566.05;109062;1273;22548;-86
2023/02/13 00:31:52;;;;;;;19.00;9.60;;;;;;;0.92;89.17;98562.44;109062;1273;22589;-86
2023/02/13 00:34:23;;;;;;;15.30;8.20;;;;;;;0.93;89.03;98565.30;109053;1270;23203;-86
2023/02/13 00:36:54;;;;;;;14.80;7.80;;;;;;;0.92;89.04;98561.88;109057;1273;22532;-86
2023/02/13 00:39:25;;;;;;;17.00;8.50;;;;;;;0.92;89.00;98562.11;109049;1265;22992;-88
2023/02/13 00:41:56;;;;;;;19.00;9.30;;;;;;;0.92;88.92;98561.06;109049;1271;22549;-86
2023/02/13 00:44:27;;;;;;;15.70;9.20;;;;;;;0.91;89.04;98558.02;109069;1273;25428;-86
2023/02/13 00:46:58;;;;;;;14.80;9.50;;;;;;;0.91;89.13;98560.94;109049;1266;22551;-86
2023/02/13 00:49:29;;;;;;;21.00;8.70;;;;;;;0.89;89.12;98557.52;109044;1273;22485;-86
2023/02/13 00:52:00;;;;;;;21.00;9.10;;;;;;;0.85;89.03;98550.19;109071;1269;22533;-85
2023/02/13 00:54:31;;;;;;;16.10;8.60;;;;;;;0.81;88.96;98550.74;109125;1273;22930;-86
2023/02/13 00:57:02;;;;;;;17.20;9.30;;;;;;;0.78;89.21;98549.01;109090;1273;24365;-86
2023/02/13 00:59:33;;;;;;;16.70;9.10;;;;;;;0.75;89.56;98543.02;109130;1266;25424;-86
2023/02/13 01:02:04;;;;;;;20.60;7.00;;;;;;;0.74;89.49;98540.45;109118;1272;25969;-86
2023/02/13 01:04:35;;;;;;;18.40;8.90;;;;;;;0.69;89.71;98541.28;109122;1266;22483;-85
2023/02/13 01:07:06;;;;;;;16.10;8.40;;;;;;;0.69;90.05;98535.73;109101;1269;22696;-86
2023/02/13 01:09:39;;;;;;;13.10;7.50;;;;;;;0.71;90.35;98534.47;109097;1272;25276;-85
2023/02/13 01:12:10;;;;;;;16.80;10.20;;;;;;;0.73;90.35;98529.42;109072;1273;23808;-86
2023/02/13 01:14:41;;;;;;;17.10;9.30;;;;;;;0.72;90.12;98523.58;109026;1274;22535;-86
2023/02/13 01:17:12;;;;;;;16.50;9.10;;;;;;;0.74;90.18;98521.65;109067;1253;23315;-86
2023/02/13 01:19:43;;;;;;;16.30;9.30;;;;;;;0.75;90.12;98519.79;109104;1272;22532;-86
2023/02/13 01:22:14;;;;;;;19.90;9.80;;;;;;;0.75;90.24;98512.64;109127;1271;22611;-86
2023/02/13 01:24:45;;;;;;;18.90;9.80;;;;;;;0.75;90.29;98502.20;109092;1273;22527;-86
2023/02/13 01:27:16;;;;;;;20.40;10.40;;;;;;;0.73;90.24;98497.94;109086;1273;22514;-86
2023/02/13 01:29:48;;;;;;;21.80;8.70;;;;;;;0.71;90.36;98495.16;109095;1272;24042;-86
2023/02/13 01:32:19;;;;;;;21.70;9.90;;;;;;;0.70;90.75;98492.84;109126;1273;23866;-86
2023/02/13 01:34:50;;;;;;;17.30;9.50;;;;;;;0.69;90.80;98494.79;109146;1273;22502;-87
2023/02/13 01:37:21;;;;;;;19.20;10.50;;;;;;;0.70;90.85;98489.54;109062;1273;24193;-86
2023/02/13 01:39:53;;;;;;;18.80;9.90;;;;;;;0.71;90.90;98487.82;109065;1272;22567;-86
2023/02/13 01:42:29;;;;;;;19.10;10.90;;;;;;;0.72;90.95;98490.52;109123;1273;25420;-87
2023/02/13 01:45:02;;;;;;;19.10;10.10;;;;;;;0.72;90.78;98489.98;109043;1274;22833;-86
2023/02/13 01:47:40;;;;;;;18.60;11.10;;;;;;;0.72;91.01;98486.67;109123;1273;23890;-86
2023/02/13 01:50:16;;;;;;;19.70;10.90;;;;;;;0.73;91.09;98488.70;109052;1274;22510;-87
2023/02/13 01:52:53;;;;;;;15.00;7.30;;;;;;;0.71;90.95;98483.80;109050;1273;22639;-86
2023/02/13 01:55:26;;;;;;;18.60;10.20;;;;;;;0.71;91.11;98482.92;109067;1274;22561;-86
2023/02/13 01:58:03;;;;;;;15.70;9.80;;;;;;;0.72;90.87;98479.36;109080;1273;24363;-86
2023/02/13 02:00:35;;;;;;;18.70;10.60;;;;;;;0.72;90.93;98474.44;109089;1274;22530;-87
2023/02/13 02:03:14;;;;;;;17.60;10.50;;;;;;;0.73;91.04;98476.27;109056;1272;22750;-86
2023/02/13 02:05:46;;;;;;;17.40;9.50;;;;;;;0.74;91.11;98471.53;109087;1273;25372;-86
2023/02/13 02:08:21;;;;;;;18.00;9.80;;;;;;;0.76;91.08;98464.70;109085;1273;22546;-86
2023/02/13 02:10:55;;;;;;;17.30;9.60;;;;;;;0.77;91.39;98462.79;109092;1273;22543;-86
2023/02/13 02:13:27;;;;;;;15.10;8.90;;;;;;;0.79;91.37;98461.83;109018;1266;22581;-86
2023/02/13 02:15:59;;;;;;;16.80;9.50;;;;;;;0.81;91.44;98461.98;109054;1273;22539;-86
2023/02/13 02:18:29;;;;;;;18.20;10.50;;;;;;;0.81;91.63;98459.34;109124;1266;22836;-87
2023/02/13 02:21:28;;;;;;;18.40;10.10;;;;;;;0.81;91.54;98460.02;109080;1265;22562;-87
2023/02/13 02:24:39;;;;;;;15.10;9.50;;;;;;;0.82;91.54;98451.08;109239;1273;22537;-86
2023/02/13 02:27:23;;;;;;;17.10;10.10;;;;;;;0.84;91.76;98450.09;109251;1272;22636;-86
2023/02/13 02:30:31;;;;;;;17.60;10.20;;;;;;;0.85;91.96;98446.88;109174;1273;23872;-86
2023/02/13 02:33:12;;;;;;;19.30;11.20;;;;;;;0.87;91.78;98450.64;109120;1274;22523;-86
2023/02/13 02:35:56;;;;;;;16.20;9.30;;;;;;;0.88;91.78;98448.64;109194;1251;23448;-86
2023/02/13 02:38:40;;;;;;;16.80;9.10;;;;;;;0.85;91.59;98445.70;109168;1273;22491;-86
2023/02/13 02:41:40;;;;;;;17.20;9.80;;;;;;;0.85;91.82;98449.96;109150;1272;22461;-86
2023/02/13 02:44:18;;;;;;;17.50;9.30;;;;;;;0.87;91.92;98445.16;109211;1272;25242;-86
2023/02/13 02:50:00;;;;;;;18.60;8.90;;;;;;;0.91;92.15;98452.88;109085;1273;40048;-86
2023/02/13 02:52:43;;;;;;;15.30;7.70;;;;;;;1.01;92.44;98451.38;109146;1274;22662;-86
2023/02/13 02:55:22;;;;;;;15.30;8.50;;;;;;;1.17;92.70;98448.41;109143;1273;25435;-86
2023/02/13 03:06:37;;;;;;;12.70;7.30;;;;;;;1.53;91.56;98454.23;109169;1266;22554;-86
2023/02/13 03:15:08;;;;;;;14.70;7.80;;;;;;;1.65;90.84;98457.95;108762;1277;22604;-87
2023/02/13 03:23:55;;;;;;;15.10;7.80;;;;;;;1.68;90.15;98465.02;108936;1277;22722;-86
2023/02/13 03:26:49;;;;;;;11.70;6.00;;;;;;;1.69;90.17;98465.05;109204;1272;22523;-86
2023/02/13 03:32:43;;;;;;;12.90;8.20;;;;;;;1.76;90.05;98458.69;109314;1272;22589;-86
2023/02/13 03:38:23;;;;;;;13.10;7.60;;;;;;;1.81;89.89;98463.35;109238;1272;22654;-86
2023/02/13 03:41:18;;;;;;;15.10;7.50;;;;;;;1.83;89.85;98467.19;109193;1269;25243;-86
2023/02/13 03:44:03;;;;;;;16.50;9.40;;;;;;;1.80;89.68;98470.77;109220;1273;23268;-86
2023/02/13 03:46:39;;;;;;;13.70;7.70;;;;;;;1.78;89.55;98461.02;109149;1274;23231;-86
2023/02/13 03:52:10;;;;;;;17.90;7.40;;;;;;;1.87;89.60;98461.69;109164;1273;23297;-86
2023/02/13 04:00:34;;;;;;;13.90;8.40;;;;;;;1.86;89.60;98467.70;109287;1272;25969;-87
2023/02/13 04:03:13;;;;;;;15.30;8.60;;;;;;;1.86;89.69;98466.23;109342;1268;24258;-85
2023/02/13 04:05:50;;;;;;;13.10;8.00;;;;;;;1.87;89.67;98463.74;109187;1272;22552;-85
2023/02/13 04:08:21;;;;;;;14.80;8.50;;;;;;;1.88;89.61;98462.95;109271;1272;22558;-86
2023/02/13 04:10:57;;;;;;;14.40;8.40;;;;;;;1.89;89.66;98464.38;109303;1269;61225;-86
2023/02/13 04:13:36;;;;;;;15.10;8.10;;;;;;;1.89;89.50;98458.23;109368;1272;23924;-86
2023/02/13 04:16:11;;;;;;;18.00;9.30;;;;;;;1.89;89.54;98458.91;109324;1259;25336;-86
2023/02/13 04:18:43;;;;;;;16.70;9.80;;;;;;;1.91;89.52;98462.55;109286;1272;22531;-86
2023/02/13 04:21:14;;;;;;;16.20;9.00;;;;;;;1.91;89.49;98450.45;109245;1269;22575;-86
2023/02/13 04:23:45;;;;;;;16.40;10.20;;;;;;;1.91;89.38;98452.06;109284;1271;22631;-87
2023/02/13 04:26:21;;;;;;;15.80;9.10;;;;;;;1.87;89.13;98459.33;109332;1269;22480;-86
2023/02/13 04:28:52;;;;;;;16.90;10.70;;;;;;;1.77;88.91;98455.77;109303;1272;24208;-87
2023/02/13 04:31:23;;;;;;;17.00;10.40;;;;;;;1.68;88.73;98455.81;109313;1272;22518;-87
2023/02/13 04:33:54;;;;;;;20.60;10.90;;;;;;;1.62;88.94;98457.30;109334;1272;22562;-87
2023/02/13 04:36:26;;;;;;;22.60;11.10;;;;;;;1.55;88.93;98455.40;109311;1272;22564;-87
2023/02/13 04:38:59;;;;;;;17.60;10.40;;;;;;;1.50;88.78;98456.48;109334;1272;22543;-86
2023/02/13 04:41:30;;;;;;;18.90;10.40;;;;;;;1.45;89.00;98456.85;109308;1272;22520;-86
2023/02/13 04:44:02;;;;;;;18.00;8.80;;;;;;;1.41;89.20;98454.92;109333;1271;22509;-86
2023/02/13 04:46:33;;;;;;;16.30;10.30;;;;;;;1.39;89.16;98456.98;109240;1272;22539;-85
2023/02/13 04:49:04;;;;;;;19.70;10.50;;;;;;;1.37;89.33;98458.23;109305;1272;22518;-86
2023/02/13 04:51:35;;;;;;;18.60;11.00;;;;;;;1.37;89.71;98456.86;109298;1272;23439;-87
2023/02/13 04:54:06;;;;;;;19.30;10.50;;;;;;;1.38;89.67;98456.59;109226;1272;22527;-86
2023/02/13 04:56:37;;;;;;;16.70;10.20;;;;;;;1.38;89.69;98459.01;109335;1272;22518;-87
2023/02/13 04:59:09;;;;;;;17.80;10.80;;;;;;;1.40;89.85;98456.67;109343;1272;22531;-87
2023/02/13 05:01:40;;;;;;;18.30;10.70;;;;;;;1.40;89.90;98464.09;109288;1272;48794;-87
2023/02/13 05:04:16;;;;;;;17.80;10.80;;;;;;;1.40;89.86;98465.23;109356;1267;22544;-87
2023/02/13 05:06:47;;;;;;;14.50;8.60;;;;;;;1.42;90.12;98465.50;109324;1270;22556;-87
2023/02/13 05:09:18;;;;;;;18.20;9.60;;;;;;;1.46;90.28;98467.69;109210;1267;22540;-87
2023/02/13 05:11:53;;;;;;;17.50;10.30;;;;;;;1.50;90.31;98465.34;109293;1272;24215;-87
2023/02/13 05:14:24;;;;;;;19.10;10.20;;;;;;;1.52;90.38;98466.65;109365;1270;22564;-87
2023/02/13 05:16:58;;;;;;;18.10;9.90;;;;;;;1.53;90.22;98464.30;109349;1272;22662;-86
2023/02/13 05:19:29;;;;;;;18.20;10.30;;;;;;;1.54;90.35;98468.02;109318;1269;22561;-86
2023/02/13 05:24:50;;;;;;;18.30;10.70;;;;;;;1.59;90.76;98474.49;109339;1272;22522;-87
2023/02/13 05:27:21;;;;;;;15.80;10.40;;;;;;;1.58;90.64;98471.88;109354;1267;22558;-87
2023/02/13 05:29:53;;;;;;;18.90;10.40;;;;;;;1.58;90.78;98470.34;109312;1272;22559;-86
2023/02/13 05:32:24;;;;;;;16.70;11.30;;;;;;;1.58;90.70;98472.64;109341;1272;22460;-86
2023/02/13 05:34:55;;;;;;;18.00;10.20;;;;;;;1.57;90.72;98473.40;109356;1272;22532;-84
2023/02/13 05:37:26;;;;;;;16.70;10.50;;;;;;;1.58;90.92;98473.55;109361;1272;24158;-85
2023/02/13 05:39:59;;;;;;;16.10;10.00;;;;;;;1.58;90.99;98476.49;109360;1265;22586;-85
2023/02/13 05:42:30;;;;;;;17.90;9.80;;;;;;;1.58;91.11;98472.11;109276;1272;24063;-85
2023/02/13 05:56:15;;;;;;;18.80;11.30;;;;;;;1.70;91.53;98476.23;106514;1296;557655;-83
2023/02/13 05:58:46;;;;;;;20.00;11.00;;;;;;;1.68;92.06;98476.89;108231;1275;99154;-84
2023/02/13 06:01:18;;;;;;;20.00;11.70;;;;;;;1.63;92.11;98476.70;108385;1282;22555;-85
2023/02/13 06:03:49;;;;;;;17.30;10.30;;;;;;;1.57;92.26;98475.33;109012;1268;22543;-85
2023/02/13 06:06:21;;;;;;;22.10;12.30;;;;;;;1.53;92.81;98479.16;108975;1274;22598;-84
2023/02/13 06:08:52;;;;;;;16.00;10.50;;;;;;;1.49;93.05;98481.60;109029;1274;22525;-84
2023/02/13 06:11:23;;;;;;;18.10;10.90;;;;;;;1.49;93.41;98485.98;109002;1275;22514;-84
2023/02/13 06:13:55;;;;;;;17.20;10.70;;;;;;;1.49;93.70;98488.11;108968;1274;24602;-84
2023/02/13 06:16:26;;;;;;;16.30;10.70;;;;;;;1.49;93.87;98488.73;108997;1275;24214;-83
2023/02/13 06:18:58;;;;;;;15.70;10.70;;;;;;;1.49;94.32;98486.64;108977;1275;22575;-84
2023/02/13 06:21:29;;;;;;;16.40;10.40;;;;;;;1.47;94.66;98490.06;108972;1275;22569;-84
2023/02/13 06:24:00;;;;;;;18.40;10.00;;;;;;;1.44;95.05;98484.63;108992;1272;22538;-83
2023/02/13 06:26:31;;;;;;;17.10;10.90;;;;;;;1.43;95.42;98488.98;108969;1275;22637;-84
2023/02/13 06:29:02;;;;;;;17.30;10.70;;;;;;;1.43;95.52;98484.99;108967;1274;22521;-83
2023/02/13 06:31:33;;;;;;;18.60;11.40;;;;;;;1.44;95.88;98486.19;108961;1275;22538;-84
2023/02/13 06:34:04;;;;;;;15.40;10.30;;;;;;;1.45;96.11;98490.42;108986;1272;22934;-84
2023/02/13 06:36:36;;;;;;;15.80;9.90;;;;;;;1.46;96.25;98489.60;108937;1272;65064;-84
2023/02/13 06:39:07;;;;;;;20.60;10.70;;;;;;;1.48;96.38;98484.85;109032;1274;25524;-84
2023/02/13 06:41:38;;;;;;;15.30;9.70;;;;;;;1.52;96.46;98486.31;108998;1274;22541;-83
2023/02/13 06:44:09;;;;;;;17.60;9.90;;;;;;;1.56;96.60;98485.39;108981;1274;22541;-83
2023/02/13 06:46:40;;;;;;;16.70;9.70;;;;;;;1.62;96.70;98490.67;108965;1256;22544;-83
2023/02/13 06:49:11;;;;;;;14.70;9.40;;;;;;;1.65;96.92;98491.98;109011;1271;22549;-83
2023/02/13 06:51:43;;;;;;;17.10;10.10;;;;;;;1.68;96.99;98496.04;108989;1274;24254;-84
2023/02/13 06:54:14;;;;;;;10.90;7.00;;;;;;;1.70;97.07;98494.92;108996;1274;22555;-84
2023/02/13 06:56:45;;;;;;;14.90;9.60;;;;;;;1.72;97.14;98493.44;108980;1275;22653;-83
2023/02/13 06:59:16;;;;;;;16.00;10.40;;;;;;;1.75;97.24;98497.27;108992;1275;24216;-83
2023/02/13 07:01:47;;;;;;;13.30;9.10;;;;;;;1.79;97.22;98497.16;108976;1275;25300;-83
2023/02/13 07:04:17;;;;;;;17.10;10.20;;;;;;;1.83;97.26;98498.67;108968;1267;23441;-84
2023/02/13 07:06:48;;;;;;;15.90;10.70;;;;;;;1.85;97.39;98499.68;108970;1272;23723;-84
2023/02/13 07:09:19;;;;;;;17.20;11.40;;;;;;;1.88;97.41;98496.78;108978;1263;22518;-83
2023/02/13 07:11:51;;;;;;;14.20;9.80;;;;;;;1.88;97.43;98497.56;109057;1267;25352;-84
2023/02/13 07:14:22;;;;;;;17.00;11.00;;;;;;;1.88;97.29;98499.00;108964;1269;25390;-84
2023/02/13 07:16:53;;;;;;;16.30;10.60;;;;;;;1.88;97.43;98498.19;108964;1275;22614;-86
2023/02/13 07:19:24;;;;;;;15.20;9.00;;;;;;;1.90;97.53;98495.45;108990;1267;25342;-86
2023/02/13 07:21:55;;;;;;;13.20;9.40;;;;;;;1.93;97.63;98497.34;109006;1270;22652;-86
2023/02/13 07:24:26;;;;;;;15.60;10.50;;;;;;;1.95;97.67;98499.95;109019;1267;22637;-85
2023/02/13 07:26:57;;;;;;;17.10;11.90;;;;;;;1.94;97.65;98503.52;109019;1267;22525;-86
2023/02/13 07:29:29;;;;;;;15.60;10.60;;;;;;;1.94;97.75;98503.67;108989;1267;25371;-86
2023/02/13 07:32:00;;;;;;;16.40;10.70;;;;;;;1.94;97.75;98505.96;109102;1269;22534;-86
2023/02/13 07:34:31;;;;;;;17.70;11.10;;;;;;;1.93;97.92;98508.04;109218;1271;30801;-86
2023/02/13 07:37:02;;;;;;;15.00;10.70;;;;;;;1.92;98.08;98506.30;109112;1266;22603;-86
2023/02/13 07:39:37;;;;;;;16.00;9.50;;;;;;;1.94;98.11;98507.89;109105;1269;23477;-86
2023/02/13 07:42:08;;;;;;;15.50;9.50;;;;;;;1.94;98.29;98514.10;109075;1266;22535;-86
2023/02/13 07:44:39;;;;;;;14.20;9.90;;;;;;;1.93;98.30;98515.36;109086;1269;23432;-87
2023/02/13 07:47:11;;;;;;;16.30;10.40;;;;;;;1.93;98.45;98515.33;109103;1272;22550;-86
2023/02/13 07:49:43;;;;;;;13.50;8.80;;;;;;;1.94;98.43;98516.08;109112;1269;22528;-86
2023/02/13 07:52:14;;;;;;;14.20;9.10;;;;;;;1.93;98.55;98513.20;109113;1265;22546;-86
2023/02/13 07:54:47;;;;;;;14.70;9.50;;;;;;;1.95;98.60;98510.56;109086;1269;24485;-86
2023/02/13 07:57:19;;;;;;;15.00;9.90;;;;;;;1.96;98.81;98511.99;109081;1250;22540;-86
2023/02/13 07:59:51;;;;;;;14.50;9.60;;;;;;;1.94;98.76;98511.33;109135;1266;22654;-86
2023/02/13 08:02:22;;;;;;;14.30;9.40;;;;;;;1.95;99.06;98510.01;109182;1266;22694;-87
2023/02/13 08:04:54;;;;;;;14.80;10.40;;;;;;;1.95;98.93;98514.15;109333;1266;22572;-86
2023/02/13 08:07:25;;;;;;;12.90;8.80;;;;;;;1.96;98.93;98510.77;109310;1266;22547;-87
2023/02/13 08:12:45;;;;;;;15.70;8.80;;;;;;;2.02;99.09;98514.57;109261;1269;22847;-87
2023/02/13 08:15:17;;;;;;;13.30;9.60;;;;;;;2.04;99.05;98513.18;109137;1269;22517;-87
2023/02/13 08:17:50;;;;;;;14.10;9.80;;;;;;;2.12;99.14;98509.13;109095;1269;23356;-86
2023/02/13 08:20:22;;;;;;;13.90;9.90;;;;;;;2.21;99.29;98503.34;109177;1266;22541;-86
2023/02/13 08:22:54;;;;;;;15.50;10.60;;;;;;;2.27;99.17;98498.30;109195;1266;22554;-86
2023/02/13 08:25:26;;;;;;;15.30;10.20;;;;;;;2.30;99.02;98494.92;109056;1268;22644;-85
2023/02/13 08:27:59;;;;;;;14.80;10.10;;;;;;;2.35;99.05;98491.23;109090;1272;22530;-87
2023/02/13 08:30:31;;;;;;;13.90;10.40;;;;;;;2.47;99.15;98485.98;109144;1272;22554;-86
2023/02/13 08:33:02;;;;;;;12.60;9.90;;;;;;;2.68;99.25;98488.02;109252;1267;22528;-86
2023/02/13 08:35:35;;;;;;;13.10;9.10;;;;;;;3.00;99.27;98479.15;109113;1272;22545;-87
2023/02/13 08:38:06;;;;;;;13.60;9.70;;;;;;;3.42;98.77;98475.23;109102;1272;22522;-87
2023/02/13 08:40:37;;;;;;;12.20;9.00;;;;;;;3.53;97.73;98477.79;109135;1272;22529;-87
2023/02/13 08:43:08;;;;;;;11.20;8.00;;;;;;;3.71;97.28;98477.18;109169;1272;22530;-89
2023/02/13 08:45:39;;;;;;;10.50;6.60;;;;;;;3.83;96.94;98481.27;109118;1272;30431;-82
2023/02/13 08:48:13;;;;;;;8.70;6.70;;;;;;;3.71;95.95;98481.74;109215;1272;22554;-83
2023/02/13 08:50:45;;;;;;;10.10;7.30;;;;;;;3.46;95.86;98482.11;109158;1272;22537;-81
2023/02/13 08:53:16;;;;;;;10.10;7.00;;;;;;;3.39;96.18;98480.95;109194;1272;22679;-82
2023/02/13 08:55:53;;;;;;;8.70;6.70;;;;;;;3.28;96.05;98483.58;109188;1272;29058;-82
2023/02/13 08:58:25;;;;;;;9.30;5.80;;;;;;;3.15;96.26;98486.63;109148;1272;22543;-81
2023/02/13 09:00:56;;;;;;;10.30;7.00;;;;;;;3.12;96.47;98489.45;109146;1267;22518;-80
2023/02/13 09:03:27;;;;;;;11.20;6.50;;;;;;;3.06;96.58;98493.93;109241;1265;23296;-81
2023/02/13 09:06:00;;;;;;;11.00;7.00;;;;;;;3.19;97.10;98487.52;109346;1266;23799;-84
2023/02/13 09:08:32;;;;;;;10.90;7.00;;;;;;;3.31;97.11;98488.79;109307;1272;22547;-83
2023/02/13 09:11:05;;;;;;;9.90;6.60;;;;;;;3.36;96.87;98486.20;109280;1269;22548;-83
2023/02/13 09:13:37;;;;;;;9.20;6.10;;;;;;;3.43;96.70;98485.44;109209;1271;42625;-83
2023/02/13 09:16:12;;;;;;;9.40;7.00;;;;;;;3.47;96.65;98485.34;109251;1272;23576;-83
2023/02/13 09:18:43;;;;;;;11.90;8.00;;;;;;;3.60;96.59;98484.43;109177;1272;22888;-83
2023/02/13 09:21:14;;;;;;;11.60;7.80;;;;;;;3.69;96.23;98482.95;109214;1269;23383;-82
2023/02/13 09:23:45;;;;;;;11.90;8.40;;;;;;;3.77;95.96;98480.92;109111;1264;46670;-86
2023/02/13 09:26:18;;;;;;;11.70;7.50;;;;;;;3.86;95.84;98475.63;109144;1269;22529;-83
2023/02/13 09:28:49;;;;;;;12.20;8.00;;;;;;;3.91;95.49;98470.06;109108;1266;22549;-85
2023/02/13 09:31:22;;;;;;;11.50;7.70;;;;;;;4.00;95.27;98473.04;109221;1269;22630;-83
2023/02/13 09:33:53;;;;;;;13.60;8.70;;;;;;;4.04;95.09;98477.27;109178;1270;22537;-84
2023/02/13 09:36:25;;;;;;;13.20;9.40;;;;;;;4.15;95.08;98471.41;109155;1272;22523;-83
2023/02/13 09:38:57;;;;;;;13.80;9.90;;;;;;;4.19;94.29;98467.98;109130;1272;23886;-83
2023/02/13 09:41:33;;;;;;;11.70;7.30;;;;;;;4.07;93.79;98466.74;109136;1269;22599;-84
2023/02/13 09:44:11;;;;;;;12.40;8.40;;;;;;;4.09;93.76;98466.27;109149;1269;24208;-84
2023/02/13 09:46:43;;;;;;;14.60;8.60;;;;;;;4.15;93.99;98469.04;109083;1272;25360;-84
2023/02/13 09:49:19;;;;;;;13.20;8.70;;;;;;;4.20;93.54;98464.57;109157;1272;22528;-81
2023/02/13 09:51:54;;;;;;;12.30;8.30;;;;;;;4.15;93.06;98459.42;109170;1266;22530;-83
2023/02/13 09:54:27;;;;;;;11.90;8.60;;;;;;;4.25;93.68;98463.11;109167;1272;22590;-81
2023/02/13 09:57:01;;;;;;;10.90;8.20;;;;;;;4.43;93.55;98465.98;109311;1270;22623;-90
2023/02/13 09:59:48;;;;;;;11.30;8.70;;;;;;;4.61;93.29;98464.83;109103;1272;22578;-89
2023/02/13 10:02:45;;;;;;;16.70;10.40;;;;;;;4.61;92.55;98470.71;109139;1272;22563;-89
2023/02/13 10:05:45;;;;;;;11.70;7.70;;;;;;;4.72;92.58;98471.11;109285;1272;25373;-87
2023/02/13 10:08:25;;;;;;;12.70;7.80;;;;;;;4.72;91.99;98470.74;109153;1272;22537;-89
2023/02/13 10:11:10;;;;;;;13.70;9.50;;;;;;;4.66;91.52;98469.59;109087;1272;22528;-88
2023/02/13 10:13:59;;;;;;;12.80;8.90;;;;;;;4.57;91.30;98472.65;109163;1267;24313;-88
2023/02/13 10:16:35;;;;;;;13.00;8.20;;;;;;;4.50;91.08;98466.88;109136;1268;22595;-88
2023/02/13 10:19:16;;;;;;;14.10;8.90;;;;;;;4.42;91.22;98470.30;109159;1266;22699;-87
2023/02/13 10:21:53;;;;;;;12.40;8.50;;;;;;;4.43;91.23;98463.04;109144;1265;23374;-88
2023/02/13 10:24:33;;;;;;;13.40;9.40;;;;;;;4.38;91.13;98461.27;109201;1269;22535;-87
2023/02/13 10:27:15;;;;;;;13.10;7.90;;;;;;;4.34;91.15;98459.30;109080;1268;25294;-86
2023/02/13 10:30:10;;;;;;;13.60;7.90;;;;;;;4.32;91.11;98447.98;109166;1272;23313;-87
2023/02/13 10:33:10;;;;;;;13.10;8.40;;;;;;;4.30;91.31;98446.11;109263;1272;33436;-83
2023/02/13 10:35:43;;;;;;;13.80;8.90;;;;;;;4.32;91.07;98437.27;109114;1268;22530;-88
2023/02/13 10:38:19;;;;;;;12.90;9.30;;;;;;;4.33;91.16;98433.56;109107;1269;22550;-86
2023/02/13 10:41:06;;;;;;;15.10;8.90;;;;;;;4.42;91.26;98429.45;109140;1272;22649;-87
2023/02/13 10:43:49;;;;;;;14.00;8.90;;;;;;;4.47;91.13;98430.97;109294;1271;34474;-87
2023/02/13 10:46:27;;;;;;;13.40;9.80;;;;;;;4.46;91.03;98428.86;109315;1271;22804;-86
2023/02/13 10:49:16;;;;;;;12.10;8.80;;;;;;;4.43;90.75;98424.66;109311;1271;25278;-85
2023/02/13 10:51:57;;;;;;;13.40;9.20;;;;;;;4.36;90.90;98417.95;109304;1271;22524;-85
2023/02/13 10:54:45;;;;;;;12.20;9.10;;;;;;;4.48;91.45;98406.50;109275;1264;58750;-85
2023/02/13 10:57:22;;;;;;;13.00;7.90;;;;;;;4.80;91.09;98405.27;109263;1271;25385;-85
2023/02/13 11:00:03;;;;;;;11.90;7.90;;;;;;;4.91;90.47;98404.00;109315;1270;22525;-84
2023/02/13 11:02:35;;;;;;;10.20;6.40;;;;;;;5.01;89.91;98400.63;109217;1272;37856;-86
2023/02/13 11:05:18;;;;;;;12.10;7.50;;;;;;;5.08;89.34;98403.13;109267;1271;22557;-85
2023/02/13 11:07:50;;;;;;;12.00;6.60;;;;;;;4.94;88.38;98401.42;109254;1271;22670;-86
2023/02/13 11:10:22;;;;;;;10.60;7.00;;;;;;;4.81;88.25;98399.65;109252;1271;24243;-85
2023/02/13 11:12:55;;;;;;;10.40;5.60;;;;;;;4.84;88.60;98394.81;109315;1271;54003;-85
2023/02/13 11:15:29;;;;;;;11.80;6.90;;;;;;;4.81;88.16;98392.21;109303;1264;22589;-85
2023/02/13 11:18:14;;;;;;;12.30;7.50;;;;;;;4.74;88.26;98396.58;109301;1272;22583;-86
2023/02/13 11:20:46;;;;;;;9.80;6.30;;;;;;;4.82;88.70;98398.15;109315;1271;22518;-87
2023/02/13 11:23:34;;;;;;;9.40;6.60;;;;;;;4.89;88.41;98388.75;109287;1270;47666;-86
2023/02/13 11:26:08;;;;;;;10.20;6.40;;;;;;;4.83;87.98;98384.05;109443;1264;22551;-85
2023/02/13 11:28:47;;;;;;;9.80;6.40;;;;;;;4.87;87.75;98373.10;109284;1267;24238;-86
2023/02/13 11:31:25;;;;;;;7.90;5.00;;;;;;;4.78;87.53;98372.39;109319;1264;22537;-85
2023/02/13 11:33:58;;;;;;;8.80;5.40;;;;;;;4.62;87.54;98371.52;109407;1263;45354;-85
2023/02/13 11:36:32;;;;;;;10.10;6.60;;;;;;;4.60;87.98;98367.95;109398;1263;22518;-85
2023/02/13 11:39:06;;;;;;;10.30;5.90;;;;;;;4.61;87.98;98358.91;109416;1267;25271;-85
2023/02/13 11:41:43;;;;;;;9.10;6.60;;;;;;;4.60;87.90;98364.77;109480;1264;24157;-86
2023/02/13 11:44:25;;;;;;;9.00;6.10;;;;;;;4.64;88.08;98364.30;109341;1264;60610;-86
2023/02/13 11:46:58;;;;;;;9.40;5.50;;;;;;;4.66;87.65;98368.95;109276;1264;22527;-86
2023/02/13 11:49:32;;;;;;;8.50;5.90;;;;;;;4.62;87.42;98369.24;109385;1271;22581;-87
2023/02/13 11:52:05;;;;;;;7.20;4.70;;;;;;;4.58;87.64;98369.56;109282;1269;22529;-86
2023/02/13 11:54:40;;;;;;;8.30;5.70;;;;;;;4.57;87.54;98374.58;109264;1271;56241;-84
2023/02/13 11:57:22;;;;;;;9.40;6.50;;;;;;;4.56;87.43;98375.10;109248;1271;22776;-85
2023/02/13 11:59:52;;;;;;;;;;;;;;;4.50;87.32;98373.33;109346;1271;22553;-86
2023/02/13 12:02:25;;;;;;;9.70;5.70;;;;;;;4.47;87.60;98373.07;109278;1271;24209;-85
2023/02/13 12:05:13;;;;;;;11.20;6.40;;;;;;;4.38;87.49;98374.38;109229;1271;22576;-82
2023/02/13 12:07:47;;;;;;;9.00;6.10;;;;;;;4.31;87.72;98368.69;108960;1267;22596;-81
2023/02/13 12:10:25;;;;;;;7.50;4.60;;;;;;;4.32;87.88;98367.31;108904;1267;22517;-84
2023/02/13 12:12:59;;;;;;;10.70;6.20;;;;;;;4.22;87.64;98368.48;108861;1271;25364;-82
2023/02/13 12:15:33;;;;;;;11.60;7.00;;;;;;;4.12;87.76;98363.67;108900;1271;23815;-83
2023/02/13 12:18:13;;;;;;;11.60;7.00;;;;;;;4.14;88.41;98356.81;108923;1271;22525;-84
2023/02/13 12:20:55;;;;;;;11.00;7.80;;;;;;;4.24;88.64;98354.73;108877;1264;23217;-81
2023/02/13 12:23:40;;;;;;;10.30;6.40;;;;;;;4.31;88.53;98357.83;108867;1263;22551;-82
2023/02/13 12:26:23;;;;;;;9.70;6.20;;;;;;;4.35;88.59;98355.44;108853;1271;22545;-81
2023/02/13 12:29:19;;;;;;;11.70;7.50;;;;;;;4.34;88.48;98354.39;108857;1264;25524;-81
2023/02/13 12:32:00;;;;;;;11.20;6.90;;;;;;;4.32;88.41;98355.64;108923;1271;23326;-82
2023/02/13 12:35:00;;;;;;;10.50;6.90;;;;;;;4.29;88.90;98350.50;108881;1267;26240;-82
2023/02/13 12:37:43;;;;;;;10.50;7.10;;;;;;;4.27;88.97;98353.98;109206;1264;22520;-82
2023/02/13 12:40:35;;;;;;;10.90;7.60;;;;;;;4.26;89.23;98354.94;109298;1270;22520;-82
2023/02/13 12:43:31;;;;;;;11.10;7.00;;;;;;;4.27;89.25;98356.55;109274;1267;22547;-82
2023/02/13 12:46:09;;;;;;;10.90;6.70;;;;;;;4.30;89.45;98350.10;109290;1268;22552;-82
2023/02/13 12:48:50;;;;;;;9.60;6.80;;;;;;;4.32;89.60;98349.66;108922;1271;22578;-82
2023/02/13 12:51:35;;;;;;;10.50;6.20;;;;;;;4.33;89.58;98352.33;108903;1272;25395;-81
2023/02/13 12:57:20;;;;;;;8.60;6.10;;;;;;;4.23;89.63;98353.21;105578;1304;545663;-81
2023/02/13 13:00:14;;;;;;;10.30;6.40;;;;;;;4.16;90.03;98357.70;108314;1283;22557;-82